sensor_id;sensor_type;location;lat;lon;timestamp;pressure;altitude;pressure_sealevel;temperature;humidity
27294;BME280;14785;52.556;13.430;2023-03-18T00:02:23;100255.97;;;11.54;100.00
27294;BME280;14785;52.556;13.430;2023-03-18T00:04:48;100249.28;;;11.75;100.00
27294;BME280;14785;52.556;13.430;2023-03-18T00:07:14;100255.31;;;11.69;100.00
27294;BME280;14785;52.556;13.430;2023-03-18T00:09:39;100253.16;;;11.56;100.00
27294;BME280;14785;52.556;13.430;2023-03-18T00:12:05;100249.97;;;11.60;100.00
27294;BME280;14785;52.556;13.430;2023-03-18T00:14:34;100256.13;;;11.61;100.00
27294;BME280;14785;52.556;13.430;2023-03-18T00:17:00;100258.03;;;11.91;100.00
27294;BME280;14785;52.556;13.430;2023-03-18T00:19:26;100255.47;;;11.67;100.00
27294;BME280;14785;52.556;13.430;2023-03-18T00:21:51;100255.00;;;11.94;100.00
27294;BME280;14785;52.556;13.430;2023-03-18T00:24:16;100243.81;;;11.99;100.00
27294;BME280;14785;52.556;13.430;2023-03-18T00:26:43;100251.41;;;12.10;100.00
27294;BME280;14785;52.556;13.430;2023-03-18T00:29:09;100247.06;;;12.17;100.00
27294;BME280;14785;52.556;13.430;2023-03-18T00:31:35;100241.06;;;11.84;100.00
27294;BME280;14785;52.556;13.430;2023-03-18T00:34:03;100230.31;;;11.61;100.00
27294;BME280;14785;52.556;13.430;2023-03-18T00:36:28;100228.34;;;11.55;100.00
27294;BME280;14785;52.556;13.430;2023-03-18T00:38:55;100232.69;;;11.56;100.00
27294;BME280;14785;52.556;13.430;2023-03-18T00:41:28;100243.47;;;11.63;100.00
27294;BME280;14785;52.556;13.430;2023-03-18T00:43:54;100241.97;;;11.69;100.00
27294;BME280;14785;52.556;13.430;2023-03-18T00:46:30;100248.00;;;11.54;100.00
27294;BME280;14785;52.556;13.430;2023-03-18T00:48:58;100239.16;;;11.70;100.00
27294;BME280;14785;52.556;13.430;2023-03-18T00:51:27;100234.94;;;11.29;100.00
27294;BME280;14785;52.556;13.430;2023-03-18T00:53:56;100235.22;;;11.42;100.00
27294;BME280;14785;52.556;13.430;2023-03-18T00:56:24;100233.50;;;11.57;100.00
27294;BME280;14785;52.556;13.430;2023-03-18T00:58:51;100234.81;;;11.61;100.00
27294;BME280;14785;52.556;13.430;2023-03-18T01:01:17;100234.06;;;11.44;100.00
27294;BME280;14785;52.556;13.430;2023-03-18T01:03:44;100237.66;;;11.59;100.00
27294;BME280;14785;52.556;13.430;2023-03-18T01:06:14;100235.16;;;11.19;100.00
27294;BME280;14785;52.556;13.430;2023-03-18T01:08:40;100239.06;;;11.31;100.00
27294;BME280;14785;52.556;13.430;2023-03-18T01:11:07;100226.84;;;11.92;100.00
27294;BME280;14785;52.556;13.430;2023-03-18T01:13:32;100230.47;;;11.21;100.00
27294;BME280;14785;52.556;13.430;2023-03-18T01:15:59;100241.47;;;11.10;100.00
27294;BME280;14785;52.556;13.430;2023-03-18T01:18:26;100231.13;;;11.23;100.00
27294;BME280;14785;52.556;13.430;2023-03-18T01:20:52;100230.66;;;11.58;100.00
27294;BME280;14785;52.556;13.430;2023-03-18T01:23:17;100223.59;;;11.35;100.00
27294;BME280;14785;52.556;13.430;2023-03-18T01:25:44;100220.47;;;11.23;100.00
27294;BME280;14785;52.556;13.430;2023-03-18T01:28:10;100229.09;;;11.33;100.00
27294;BME280;14785;52.556;13.430;2023-03-18T01:30:37;100227.28;;;11.34;100.00
27294;BME280;14785;52.556;13.430;2023-03-18T01:33:04;100226.41;;;11.41;100.00
27294;BME280;14785;52.556;13.430;2023-03-18T01:35:32;100225.47;;;11.18;100.00
27294;BME280;14785;52.556;13.430;2023-03-18T01:37:58;100223.66;;;11.19;100.00
27294;BME280;14785;52.556;13.430;2023-03-18T01:40:25;100217.81;;;11.23;100.00
27294;BME280;14785;52.556;13.430;2023-03-18T01:43:11;100218.66;;;11.16;100.00
27294;BME280;14785;52.556;13.430;2023-03-18T01:45:37;100211.53;;;11.00;100.00
27294;BME280;14785;52.556;13.430;2023-03-18T01:48:03;100211.03;;;11.05;100.00
27294;BME280;14785;52.556;13.430;2023-03-18T01:50:35;100215.78;;;11.33;100.00
27294;BME280;14785;52.556;13.430;2023-03-18T01:53:05;100217.16;;;11.21;100.00
27294;BME280;14785;52.556;13.430;2023-03-18T01:55:33;100219.78;;;11.29;100.00
27294;BME280;14785;52.556;13.430;2023-03-18T01:58:05;100214.53;;;11.13;100.00
27294;BME280;14785;52.556;13.430;2023-03-18T02:00:34;100210.84;;;11.22;100.00
27294;BME280;14785;52.556;13.430;2023-03-18T02:03:02;100207.78;;;11.41;100.00
27294;BME280;14785;52.556;13.430;2023-03-18T02:05:29;100218.41;;;11.41;100.00
27294;BME280;14785;52.556;13.430;2023-03-18T02:07:54;100208.41;;;11.43;100.00
27294;BME280;14785;52.556;13.430;2023-03-18T02:10:26;100213.72;;;11.51;100.00
27294;BME280;14785;52.556;13.430;2023-03-18T02:13:02;100223.41;;;11.44;100.00
27294;BME280;14785;52.556;13.430;2023-03-18T02:15:28;100226.25;;;11.35;100.00
27294;BME280;14785;52.556;13.430;2023-03-18T02:18:27;100223.09;;;11.31;100.00
27294;BME280;14785;52.556;13.430;2023-03-18T02:24:10;100220.72;;;10.98;100.00
27294;BME280;14785;52.556;13.430;2023-03-18T02:29:27;100225.13;;;11.29;100.00
27294;BME280;14785;52.556;13.430;2023-03-18T02:31:53;100219.47;;;11.24;100.00
27294;BME280;14785;52.556;13.430;2023-03-18T02:34:19;100209.75;;;11.39;100.00
27294;BME280;14785;52.556;13.430;2023-03-18T02:36:47;100215.22;;;11.07;100.00
27294;BME280;14785;52.556;13.430;2023-03-18T02:39:13;100221.50;;;11.14;100.00
27294;BME280;14785;52.556;13.430;2023-03-18T02:41:39;100209.06;;;11.45;100.00
27294;BME280;14785;52.556;13.430;2023-03-18T02:44:05;100215.34;;;11.14;100.00
27294;BME280;14785;52.556;13.430;2023-03-18T02:47:00;100211.13;;;11.35;100.00
27294;BME280;14785;52.556;13.430;2023-03-18T02:49:29;100217.44;;;11.34;100.00
27294;BME280;14785;52.556;13.430;2023-03-18T02:51:55;100207.91;;;10.93;100.00
27294;BME280;14785;52.556;13.430;2023-03-18T02:54:26;100212.34;;;11.17;100.00
27294;BME280;14785;52.556;13.430;2023-03-18T02:56:53;100214.50;;;11.21;100.00
27294;BME280;14785;52.556;13.430;2023-03-18T02:59:19;100198.91;;;11.02;100.00
27294;BME280;14785;52.556;13.430;2023-03-18T03:01:46;100200.72;;;11.02;100.00
27294;BME280;14785;52.556;13.430;2023-03-18T03:04:13;100199.88;;;11.17;100.00
27294;BME280;14785;52.556;13.430;2023-03-18T03:06:40;100201.75;;;10.93;100.00
27294;BME280;14785;52.556;13.430;2023-03-18T03:09:06;100201.91;;;10.99;100.00
27294;BME280;14785;52.556;13.430;2023-03-18T03:11:32;100199.59;;;11.04;100.00
27294;BME280;14785;52.556;13.430;2023-03-18T03:13:58;100200.78;;;10.78;100.00
27294;BME280;14785;52.556;13.430;2023-03-18T03:16:23;100202.44;;;10.95;100.00
27294;BME280;14785;52.556;13.430;2023-03-18T03:18:49;100211.38;;;11.02;100.00
27294;BME280;14785;52.556;13.430;2023-03-18T03:21:15;100215.09;;;10.85;100.00
27294;BME280;14785;52.556;13.430;2023-03-18T03:23:43;100213.25;;;10.85;100.00
27294;BME280;14785;52.556;13.430;2023-03-18T03:26:09;100222.19;;;11.08;100.00
27294;BME280;14785;52.556;13.430;2023-03-18T03:28:35;100216.81;;;11.24;100.00
27294;BME280;14785;52.556;13.430;2023-03-18T03:31:01;100219.88;;;10.97;100.00
27294;BME280;14785;52.556;13.430;2023-03-18T03:33:27;100219.53;;;11.00;100.00
27294;BME280;14785;52.556;13.430;2023-03-18T03:35:53;100221.56;;;10.90;100.00
27294;BME280;14785;52.556;13.430;2023-03-18T03:38:19;100213.88;;;11.03;100.00
27294;BME280;14785;52.556;13.430;2023-03-18T03:40:46;100220.25;;;10.86;100.00
27294;BME280;14785;52.556;13.430;2023-03-18T03:43:13;100218.84;;;11.06;100.00
27294;BME280;14785;52.556;13.430;2023-03-18T03:45:39;100221.50;;;11.06;100.00
27294;BME280;14785;52.556;13.430;2023-03-18T03:48:06;100210.88;;;11.06;100.00
27294;BME280;14785;52.556;13.430;2023-03-18T03:50:31;100215.56;;;10.88;100.00
27294;BME280;14785;52.556;13.430;2023-03-18T03:52:57;100206.31;;;10.68;100.00
27294;BME280;14785;52.556;13.430;2023-03-18T03:55:23;100215.47;;;11.28;100.00
27294;BME280;14785;52.556;13.430;2023-03-18T03:57:49;100211.81;;;11.21;100.00
27294;BME280;14785;52.556;13.430;2023-03-18T04:00:18;100215.81;;;11.25;100.00
27294;BME280;14785;52.556;13.430;2023-03-18T04:02:45;100214.03;;;11.10;100.00
27294;BME280;14785;52.556;13.430;2023-03-18T04:05:13;100220.03;;;11.04;100.00
27294;BME280;14785;52.556;13.430;2023-03-18T04:07:41;100221.88;;;10.95;100.00
27294;BME280;14785;52.556;13.430;2023-03-18T04:10:08;100215.91;;;10.85;100.00
27294;BME280;14785;52.556;13.430;2023-03-18T04:12:35;100210.22;;;11.04;100.00
27294;BME280;14785;52.556;13.430;2023-03-18T04:15:00;100219.50;;;11.16;100.00
27294;BME280;14785;52.556;13.430;2023-03-18T04:17:26;100228.53;;;10.99;100.00
27294;BME280;14785;52.556;13.430;2023-03-18T04:19:51;100236.22;;;11.41;100.00
27294;BME280;14785;52.556;13.430;2023-03-18T04:22:17;100234.66;;;11.16;100.00
27294;BME280;14785;52.556;13.430;2023-03-18T04:24:42;100232.09;;;11.30;100.00
27294;BME280;14785;52.556;13.430;2023-03-18T04:27:09;100243.59;;;11.31;100.00
27294;BME280;14785;52.556;13.430;2023-03-18T04:29:35;100235.88;;;10.89;100.00
27294;BME280;14785;52.556;13.430;2023-03-18T04:32:01;100231.31;;;11.14;100.00
27294;BME280;14785;52.556;13.430;2023-03-18T04:34:26;100235.38;;;10.94;100.00
27294;BME280;14785;52.556;13.430;2023-03-18T04:36:52;100242.84;;;10.98;100.00
27294;BME280;14785;52.556;13.430;2023-03-18T04:39:20;100249.75;;;11.23;100.00
27294;BME280;14785;52.556;13.430;2023-03-18T04:41:45;100237.22;;;10.69;100.00
27294;BME280;14785;52.556;13.430;2023-03-18T04:44:11;100243.13;;;11.11;100.00
27294;BME280;14785;52.556;13.430;2023-03-18T04:46:37;100251.13;;;11.11;100.00
27294;BME280;14785;52.556;13.430;2023-03-18T04:49:03;100254.06;;;11.24;100.00
27294;BME280;14785;52.556;13.430;2023-03-18T04:51:28;100247.78;;;11.09;100.00
27294;BME280;14785;52.556;13.430;2023-03-18T04:53:54;100259.09;;;11.11;100.00
27294;BME280;14785;52.556;13.430;2023-03-18T04:56:19;100252.47;;;10.91;100.00
27294;BME280;14785;52.556;13.430;2023-03-18T04:58:45;100253.78;;;11.11;100.00
27294;BME280;14785;52.556;13.430;2023-03-18T05:01:13;100254.16;;;10.92;100.00
27294;BME280;14785;52.556;13.430;2023-03-18T05:03:39;100253.47;;;10.98;100.00
27294;BME280;14785;52.556;13.430;2023-03-18T05:06:05;100257.81;;;10.83;100.00
27294;BME280;14785;52.556;13.430;2023-03-18T05:08:31;100258.81;;;10.58;100.00
27294;BME280;14785;52.556;13.430;2023-03-18T05:10:56;100259.81;;;10.65;100.00
27294;BME280;14785;52.556;13.430;2023-03-18T05:13:22;100251.50;;;10.84;100.00
27294;BME280;14785;52.556;13.430;2023-03-18T05:15:48;100257.81;;;10.83;100.00
27294;BME280;14785;52.556;13.430;2023-03-18T05:18:13;100253.78;;;11.19;100.00
27294;BME280;14785;52.556;13.430;2023-03-18T05:20:40;100264.13;;;10.90;100.00
27294;BME280;14785;52.556;13.430;2023-03-18T05:23:06;100259.81;;;10.57;100.00
27294;BME280;14785;52.556;13.430;2023-03-18T05:25:31;100252.16;;;10.54;100.00
27294;BME280;14785;52.556;13.430;2023-03-18T05:27:57;100252.16;;;10.46;100.00
27294;BME280;14785;52.556;13.430;2023-03-18T05:30:23;100253.19;;;10.53;100.00
27294;BME280;14785;52.556;13.430;2023-03-18T05:32:49;100247.19;;;10.35;100.00
27294;BME280;14785;52.556;13.430;2023-03-18T05:35:14;100247.81;;;10.21;100.00
27294;BME280;14785;52.556;13.430;2023-03-18T05:37:40;100255.47;;;10.40;100.00
27294;BME280;14785;52.556;13.430;2023-03-18T05:40:06;100257.97;;;10.66;100.00
27294;BME280;14785;52.556;13.430;2023-03-18T05:42:36;100258.81;;;10.90;100.00
27294;BME280;14785;52.556;13.430;2023-03-18T05:45:03;100258.97;;;10.97;100.00
27294;BME280;14785;52.556;13.430;2023-03-18T05:47:31;100251.81;;;10.49;100.00
27294;BME280;14785;52.556;13.430;2023-03-18T05:49:57;100257.97;;;10.26;100.00
27294;BME280;14785;52.556;13.430;2023-03-18T05:52:22;100262.78;;;10.46;100.00
27294;BME280;14785;52.556;13.430;2023-03-18T05:54:48;100268.09;;;10.46;100.00
27294;BME280;14785;52.556;13.430;2023-03-18T05:57:14;100262.47;;;10.49;100.00
27294;BME280;14785;52.556;13.430;2023-03-18T05:59:40;100262.63;;;10.48;100.00
27294;BME280;14785;52.556;13.430;2023-03-18T06:02:05;100264.94;;;10.35;100.00
27294;BME280;14785;52.556;13.430;2023-03-18T06:04:31;100267.47;;;10.60;100.00
27294;BME280;14785;52.556;13.430;2023-03-18T06:06:56;100264.28;;;10.57;100.00
27294;BME280;14785;52.556;13.430;2023-03-18T06:09:22;100263.97;;;10.52;100.00
27294;BME280;14785;52.556;13.430;2023-03-18T06:11:48;100265.47;;;10.54;100.00
27294;BME280;14785;52.556;13.430;2023-03-18T06:14:13;100260.63;;;10.66;100.00
27294;BME280;14785;52.556;13.430;2023-03-18T06:16:40;100264.13;;;10.66;100.00
27294;BME280;14785;52.556;13.430;2023-03-18T06:19:06;100265.75;;;11.15;100.00
27294;BME280;14785;52.556;13.430;2023-03-18T06:21:32;100263.03;;;11.31;100.00
27294;BME280;14785;52.556;13.430;2023-03-18T06:23:57;100267.47;;;10.60;100.00
27294;BME280;14785;52.556;13.430;2023-03-18T06:26:23;100270.94;;;10.69;100.00
27294;BME280;14785;52.556;13.430;2023-03-18T06:28:48;100275.09;;;10.55;100.00
27294;BME280;14785;52.556;13.430;2023-03-18T06:31:14;100275.44;;;10.44;100.00
27294;BME280;14785;52.556;13.430;2023-03-18T06:33:39;100280.44;;;10.95;100.00
27294;BME280;14785;52.556;13.430;2023-03-18T06:36:05;100282.09;;;10.72;100.00
27294;BME280;14785;52.556;13.430;2023-03-18T06:38:31;100288.91;;;10.75;100.00
27294;BME280;14785;52.556;13.430;2023-03-18T06:40:57;100287.75;;;10.77;100.00
27294;BME280;14785;52.556;13.430;2023-03-18T06:43:22;100292.06;;;10.86;100.00
27294;BME280;14785;52.556;13.430;2023-03-18T06:45:48;100293.06;;;10.77;100.00
27294;BME280;14785;52.556;13.430;2023-03-18T06:48:13;100278.41;;;10.49;100.00
27294;BME280;14785;52.556;13.430;2023-03-18T06:50:39;100279.44;;;10.56;100.00
27294;BME280;14785;52.556;13.430;2023-03-18T06:53:07;100289.72;;;10.51;100.00
27294;BME280;14785;52.556;13.430;2023-03-18T06:55:32;100294.22;;;10.59;100.00
27294;BME280;14785;52.556;13.430;2023-03-18T06:57:58;100290.72;;;10.82;100.00
27294;BME280;14785;52.556;13.430;2023-03-18T07:00:24;100302.19;;;10.59;100.00
27294;BME280;14785;52.556;13.430;2023-03-18T07:02:51;100298.06;;;10.72;100.00
27294;BME280;14785;52.556;13.430;2023-03-18T07:05:17;100293.75;;;10.71;100.00
27294;BME280;14785;52.556;13.430;2023-03-18T07:07:43;100307.69;;;11.05;100.00
27294;BME280;14785;52.556;13.430;2023-03-18T07:10:23;100308.69;;;10.88;100.00
27294;BME280;14785;52.556;13.430;2023-03-18T07:12:49;100316.19;;;10.85;100.00
27294;BME280;14785;52.556;13.430;2023-03-18T07:15:17;100320.66;;;11.00;100.00
27294;BME280;14785;52.556;13.430;2023-03-18T07:17:45;100323.66;;;11.13;100.00
27294;BME280;14785;52.556;13.430;2023-03-18T07:20:11;100323.16;;;11.18;100.00
27294;BME280;14785;52.556;13.430;2023-03-18T07:22:36;100320.97;;;11.29;100.00
27294;BME280;14785;52.556;13.430;2023-03-18T07:25:03;100325.91;;;11.48;100.00
27294;BME280;14785;52.556;13.430;2023-03-18T07:27:28;100331.19;;;11.81;100.00
27294;BME280;14785;52.556;13.430;2023-03-18T07:29:54;100326.91;;;11.64;100.00
27294;BME280;14785;52.556;13.430;2023-03-18T07:32:21;100326.44;;;11.36;100.00
27294;BME280;14785;52.556;13.430;2023-03-18T07:34:46;100321.56;;;11.55;100.00
27294;BME280;14785;52.556;13.430;2023-03-18T07:37:13;100321.22;;;11.58;100.00
27294;BME280;14785;52.556;13.430;2023-03-18T07:39:39;100327.91;;;11.46;100.00
27294;BME280;14785;52.556;13.430;2023-03-18T07:42:04;100334.22;;;11.70;100.00
27294;BME280;14785;52.556;13.430;2023-03-18T07:44:30;100334.66;;;11.89;100.00
27294;BME280;14785;52.556;13.430;2023-03-18T07:46:56;100339.47;;;11.94;100.00
27294;BME280;14785;52.556;13.430;2023-03-18T07:49:22;100336.94;;;12.31;100.00
27294;BME280;14785;52.556;13.430;2023-03-18T07:51:48;100335.22;;;12.38;100.00
27294;BME280;14785;52.556;13.430;2023-03-18T07:54:14;100341.72;;;12.66;100.00
27294;BME280;14785;52.556;13.430;2023-03-18T07:56:39;100355.22;;;12.42;100.00
27294;BME280;14785;52.556;13.430;2023-03-18T07:59:05;100349.31;;;12.24;100.00
27294;BME280;14785;52.556;13.430;2023-03-18T08:01:31;100350.75;;;12.34;100.00
27294;BME280;14785;52.556;13.430;2023-03-18T08:03:57;100365.97;;;12.26;100.00
27294;BME280;14785;52.556;13.430;2023-03-18T08:06:23;100366.75;;;12.87;100.00
27294;BME280;14785;52.556;13.430;2023-03-18T08:08:49;100370.22;;;12.96;100.00
27294;BME280;14785;52.556;13.430;2023-03-18T08:11:15;100370.31;;;13.25;100.00
27294;BME280;14785;52.556;13.430;2023-03-18T08:13:41;100371.53;;;13.37;100.00
27294;BME280;14785;52.556;13.430;2023-03-18T08:16:07;100360.66;;;13.24;100.00
27294;BME280;14785;52.556;13.430;2023-03-18T08:18:33;100371.28;;;13.32;100.00
27294;BME280;14785;52.556;13.430;2023-03-18T08:21:00;100361.56;;;13.16;100.00
27294;BME280;14785;52.556;13.430;2023-03-18T08:23:26;100366.00;;;13.24;100.00
27294;BME280;14785;52.556;13.430;2023-03-18T08:25:52;100372.50;;;13.73;100.00
27294;BME280;14785;52.556;13.430;2023-03-18T08:28:18;100368.16;;;13.58;100.00
27294;BME280;14785;52.556;13.430;2023-03-18T08:30:44;100372.31;;;13.60;100.00
27294;BME280;14785;52.556;13.430;2023-03-18T08:33:11;100378.22;;;14.28;100.00
27294;BME280;14785;52.556;13.430;2023-03-18T08:35:38;100374.16;;;14.18;100.00
27294;BME280;14785;52.556;13.430;2023-03-18T08:38:05;100380.06;;;14.42;100.00
27294;BME280;14785;52.556;13.430;2023-03-18T08:40:31;100377.41;;;14.28;100.00
27294;BME280;14785;52.556;13.430;2023-03-18T08:42:58;100386.09;;;14.01;100.00
27294;BME280;14785;52.556;13.430;2023-03-18T08:45:24;100381.28;;;14.11;100.00
27294;BME280;14785;52.556;13.430;2023-03-18T08:47:53;100378.44;;;14.62;100.00
27294;BME280;14785;52.556;13.430;2023-03-18T08:50:19;100385.78;;;15.17;100.00
27294;BME280;14785;52.556;13.430;2023-03-18T08:52:45;100382.84;;;15.12;100.00
27294;BME280;14785;52.556;13.430;2023-03-18T08:55:10;100377.31;;;14.92;100.00
27294;BME280;14785;52.556;13.430;2023-03-18T08:57:36;100385.88;;;15.02;100.00
27294;BME280;14785;52.556;13.430;2023-03-18T09:00:03;100374.72;;;15.48;100.00
27294;BME280;14785;52.556;13.430;2023-03-18T09:02:29;100382.88;;;15.61;100.00
27294;BME280;14785;52.556;13.430;2023-03-18T09:04:55;100388.78;;;15.50;100.00
27294;BME280;14785;52.556;13.430;2023-03-18T09:07:21;100386.25;;;15.20;100.00
27294;BME280;14785;52.556;13.430;2023-03-18T09:09:46;100392.19;;;14.59;100.00
27294;BME280;14785;52.556;13.430;2023-03-18T09:12:12;100410.22;;;15.28;100.00
27294;BME280;14785;52.556;13.430;2023-03-18T09:14:39;100402.34;;;16.37;100.00
27294;BME280;14785;52.556;13.430;2023-03-18T09:17:05;100408.47;;;15.63;100.00
27294;BME280;14785;52.556;13.430;2023-03-18T09:19:30;100402.19;;;16.11;100.00
27294;BME280;14785;52.556;13.430;2023-03-18T09:21:56;100401.03;;;15.93;100.00
27294;BME280;14785;52.556;13.430;2023-03-18T09:24:21;100400.06;;;16.41;100.00
27294;BME280;14785;52.556;13.430;2023-03-18T09:26:47;100393.50;;;16.43;100.00
27294;BME280;14785;52.556;13.430;2023-03-18T09:29:12;100391.69;;;16.50;99.47
27294;BME280;14785;52.556;13.430;2023-03-18T09:31:38;100402.75;;;16.94;99.68
27294;BME280;14785;52.556;13.430;2023-03-18T09:34:04;100407.31;;;16.94;97.58
27294;BME280;14785;52.556;13.430;2023-03-18T09:36:30;100407.53;;;17.05;98.09
27294;BME280;14785;52.556;13.430;2023-03-18T09:38:55;100411.25;;;17.11;97.34
27294;BME280;14785;52.556;13.430;2023-03-18T09:41:30;100418.44;;;16.97;98.46
27294;BME280;14785;52.556;13.430;2023-03-18T09:44:25;100426.56;;;17.17;97.09
27294;BME280;14785;52.556;13.430;2023-03-18T09:52:53;100424.09;;;17.09;98.63
27294;BME280;14785;52.556;13.430;2023-03-18T09:55:29;100427.19;;;16.52;100.00
27294;BME280;14785;52.556;13.430;2023-03-18T09:58:01;100425.19;;;17.47;97.55
27294;BME280;14785;52.556;13.430;2023-03-18T10:00:36;100424.56;;;17.45;97.67
27294;BME280;14785;52.556;13.430;2023-03-18T10:03:29;100424.13;;;17.48;98.59
27294;BME280;14785;52.556;13.430;2023-03-18T10:06:02;100426.56;;;18.15;96.81
27294;BME280;14785;52.556;13.430;2023-03-18T10:11:32;100420.28;;;18.34;94.45
27294;BME280;14785;52.556;13.430;2023-03-18T10:17:07;100434.84;;;18.07;96.72
27294;BME280;14785;52.556;13.430;2023-03-18T10:19:55;100419.50;;;18.77;97.19
27294;BME280;14785;52.556;13.430;2023-03-18T10:35:41;100421.56;;;20.54;87.84
27294;BME280;14785;52.556;13.430;2023-03-18T10:38:25;100418.38;;;20.03;89.80
27294;BME280;14785;52.556;13.430;2023-03-18T10:40:54;100418.06;;;21.01;87.55
27294;BME280;14785;52.556;13.430;2023-03-18T10:43:24;100427.16;;;21.59;84.95
27294;BME280;14785;52.556;13.430;2023-03-18T10:46:01;100413.09;;;19.90;89.16
27294;BME280;14785;52.556;13.430;2023-03-18T10:53:33;100415.19;;;20.66;87.83
27294;BME280;14785;52.556;13.430;2023-03-18T10:56:09;100421.44;;;21.26;88.21
27294;BME280;14785;52.556;13.430;2023-03-18T10:58:37;100418.97;;;21.77;86.86
27294;BME280;14785;52.556;13.430;2023-03-18T11:01:05;100423.13;;;21.73;86.25
27294;BME280;14785;52.556;13.430;2023-03-18T11:03:34;100420.84;;;22.11;87.25
27294;BME280;14785;52.556;13.430;2023-03-18T11:06:01;100420.09;;;22.50;84.73
27294;BME280;14785;52.556;13.430;2023-03-18T11:08:36;100428.03;;;23.36;80.08
27294;BME280;14785;52.556;13.430;2023-03-18T11:13:50;100428.31;;;22.67;82.73
27294;BME280;14785;52.556;13.430;2023-03-18T11:16:55;100423.25;;;22.47;83.87
27294;BME280;14785;52.556;13.430;2023-03-18T11:19:31;100419.72;;;21.66;85.15
27294;BME280;14785;52.556;13.430;2023-03-18T11:22:21;100422.44;;;21.43;87.29
27294;BME280;14785;52.556;13.430;2023-03-18T11:25:14;100411.72;;;20.59;89.35
27294;BME280;14785;52.556;13.430;2023-03-18T11:27:45;100415.88;;;20.01;91.87
27294;BME280;14785;52.556;13.430;2023-03-18T11:30:22;100421.22;;;20.32;91.55
27294;BME280;14785;52.556;13.430;2023-03-18T11:33:11;100413.41;;;20.00;92.78
27294;BME280;14785;52.556;13.430;2023-03-18T11:35:54;100411.31;;;20.02;93.88
27294;BME280;14785;52.556;13.430;2023-03-18T11:38:27;100416.59;;;20.15;93.65
27294;BME280;14785;52.556;13.430;2023-03-18T11:43:37;100415.22;;;19.39;97.44
27294;BME280;14785;52.556;13.430;2023-03-18T11:46:13;100413.78;;;19.05;99.01
27294;BME280;14785;52.556;13.430;2023-03-18T11:48:40;100408.28;;;19.18;100.00
27294;BME280;14785;52.556;13.430;2023-03-18T11:56:38;100408.47;;;20.69;95.70
27294;BME280;14785;52.556;13.430;2023-03-18T12:04:38;100414.00;;;20.92;96.72
27294;BME280;14785;52.556;13.430;2023-03-18T12:18:02;100424.94;;;22.25;93.04
27294;BME280;14785;52.556;13.430;2023-03-18T12:20:42;100420.59;;;21.78;92.36
27294;BME280;14785;52.556;13.430;2023-03-18T12:28:55;100422.16;;;23.00;88.92
27294;BME280;14785;52.556;13.430;2023-03-18T12:31:45;100423.41;;;22.29;92.86
27294;BME280;14785;52.556;13.430;2023-03-18T12:34:40;100411.78;;;22.69;94.06
27294;BME280;14785;52.556;13.430;2023-03-18T12:42:31;100428.28;;;24.01;88.90
27294;BME280;14785;52.556;13.430;2023-03-18T12:45:08;100425.00;;;23.99;87.04
27294;BME280;14785;52.556;13.430;2023-03-18T12:50:18;100422.53;;;23.48;90.87
27294;BME280;14785;52.556;13.430;2023-03-18T12:52:55;100416.25;;;23.64;89.74
27294;BME280;14785;52.556;13.430;2023-03-18T12:55:27;100410.41;;;22.54;93.41
27294;BME280;14785;52.556;13.430;2023-03-18T13:00:48;100418.44;;;22.89;91.18
27294;BME280;14785;52.556;13.430;2023-03-18T13:03:33;100415.00;;;21.39;99.45
27294;BME280;14785;52.556;13.430;2023-03-18T13:09:09;100410.44;;;22.83;96.21
27294;BME280;14785;52.556;13.430;2023-03-18T13:16:58;100403.56;;;23.86;96.85
27294;BME280;14785;52.556;13.430;2023-03-18T13:19:24;100399.31;;;23.24;94.66
27294;BME280;14785;52.556;13.430;2023-03-18T13:22:17;100405.84;;;22.32;95.82
27294;BME280;14785;52.556;13.430;2023-03-18T13:44:14;100399.94;;;25.26;88.62
27294;BME280;14785;52.556;13.430;2023-03-18T13:46:59;100407.13;;;25.11;86.55
27294;BME280;14785;52.556;13.430;2023-03-18T13:49:31;100398.78;;;24.69;89.05
27294;BME280;14785;52.556;13.430;2023-03-18T13:51:59;100404.81;;;23.01;97.29
27294;BME280;14785;52.556;13.430;2023-03-18T13:54:36;100413.72;;;22.33;97.47
27294;BME280;14785;52.556;13.430;2023-03-18T14:03:13;100418.91;;;21.54;100.00
27294;BME280;14785;52.556;13.430;2023-03-18T14:05:43;100407.38;;;21.70;100.00
27294;BME280;14785;52.556;13.430;2023-03-18T14:13:49;100413.47;;;21.54;100.00
27294;BME280;14785;52.556;13.430;2023-03-18T14:16:22;100405.72;;;22.78;100.00
27294;BME280;14785;52.556;13.430;2023-03-18T14:19:09;100405.97;;;24.37;98.94
27294;BME280;14785;52.556;13.430;2023-03-18T14:21:44;100398.38;;;22.62;98.72
27294;BME280;14785;52.556;13.430;2023-03-18T14:29:48;100391.91;;;24.88;91.25
27294;BME280;14785;52.556;13.430;2023-03-18T14:35:25;100391.72;;;25.84;89.21
27294;BME280;14785;52.556;13.430;2023-03-18T14:40:49;100390.41;;;26.44;92.30
27294;BME280;14785;52.556;13.430;2023-03-18T14:43:28;100378.03;;;26.93;85.45
27294;BME280;14785;52.556;13.430;2023-03-18T14:46:02;100393.22;;;26.54;84.58
27294;BME280;14785;52.556;13.430;2023-03-18T14:48:33;100394.31;;;25.69;86.63
27294;BME280;14785;52.556;13.430;2023-03-18T14:51:06;100386.47;;;26.15;88.18
27294;BME280;14785;52.556;13.430;2023-03-18T14:53:55;100391.41;;;26.74;84.17